createdAt,value
2019-04-29T00:01:40.367Z,15.43
2019-04-29T00:06:41.746Z,14.93
2019-04-29T00:11:43.752Z,15.70
2019-04-29T00:16:56.344Z,15.88
2019-04-29T00:21:58.674Z,17.35
2019-04-29T00:27:00.271Z,18.20
2019-04-29T00:32:01.642Z,17.37
2019-04-29T00:37:17.014Z,17.45
2019-04-29T00:42:20.363Z,17.50
2019-04-29T00:47:22.037Z,16.67
2019-04-29T00:52:24.421Z,17.23
2019-04-29T00:57:25.742Z,16.97
2019-04-29T01:02:27.575Z,20.62
2019-04-29T01:07:30.335Z,20.05
2019-04-29T01:12:31.586Z,18.30
2019-04-29T01:17:33.950Z,19.12
2019-04-29T01:22:35.310Z,18.40
2019-04-29T01:27:44.614Z,18.05
2019-04-29T01:32:45.907Z,16.73
2019-04-29T01:37:47.400Z,17.82
2019-04-29T01:42:48.906Z,16.65
2019-04-29T01:47:50.327Z,18.02
2019-04-29T01:52:51.659Z,17.20
2019-04-29T01:57:53.052Z,16.12
2019-04-29T02:02:54.637Z,16.87
2019-04-29T02:07:56.000Z,17.23
2019-04-29T02:12:57.446Z,17.20
2019-04-29T02:17:58.773Z,18.15
2019-04-29T02:23:01.947Z,15.58
2019-04-29T02:28:03.394Z,15.83
2019-04-29T02:33:04.746Z,16.48
2019-04-29T02:38:09.707Z,15.50
2019-04-29T02:43:18.637Z,16.48
2019-04-29T02:48:19.966Z,16.25
2019-04-29T02:53:21.342Z,17.42
2019-04-29T02:58:40.064Z,17.27
2019-04-29T03:03:43.384Z,17.75
2019-04-29T03:08:45.150Z,73.25
2019-04-29T03:13:46.710Z,33.18
2019-04-29T03:18:52.961Z,23.15
2019-04-29T03:23:54.234Z,16.70
2019-04-29T03:28:55.742Z,16.52
2019-04-29T03:33:57.088Z,14.18
2019-04-29T03:38:58.421Z,14.47
2019-04-29T03:44:00.521Z,13.38
2019-04-29T03:49:01.812Z,13.65
2019-04-29T03:54:03.203Z,12.60
2019-04-29T03:59:04.580Z,13.80
2019-04-29T04:04:10.658Z,14.85
2019-04-29T04:09:21.588Z,16.57
2019-04-29T04:14:24.844Z,21.02
2019-04-29T04:19:28.104Z,27.95
2019-04-29T04:24:29.436Z,42.53
2019-04-29T04:29:30.883Z,25.57
2019-04-29T04:34:32.172Z,23.70
2019-04-29T04:39:36.714Z,25.52
2019-04-29T04:44:47.493Z,26.27
2019-04-29T04:49:50.220Z,24.77
2019-04-29T04:54:53.435Z,30.12
2019-04-29T04:59:54.885Z,35.70
2019-04-29T05:04:56.145Z,33.88
2019-04-29T05:09:57.544Z,40.10
2019-04-29T05:14:58.805Z,45.12
2019-04-29T05:20:00.084Z,37.10
2019-04-29T05:25:03.551Z,36.85
2019-04-29T05:30:05.546Z,45.52
2019-04-29T05:35:12.142Z,31.45
2019-04-29T05:40:37.837Z,31.33
2019-04-29T05:45:46.182Z,31.65
2019-04-29T05:51:09.139Z,32.28
2019-04-29T05:56:10.432Z,32.83
2019-04-29T06:01:16.563Z,29.23
2019-04-29T06:06:18.887Z,29.92
2019-04-29T06:11:23.108Z,28.95
2019-04-29T06:16:23.835Z,42.75
2019-04-29T06:21:25.332Z,39.60
2019-04-29T06:26:26.602Z,30.68
2019-04-29T06:31:27.869Z,31.23
2019-04-29T06:36:29.460Z,32.13
2019-04-29T06:41:31.197Z,26.87
2019-04-29T06:46:32.568Z,28.27
2019-04-29T06:51:34.091Z,30.32
2019-04-29T06:56:35.435Z,38.02
2019-04-29T07:01:37.544Z,34.20
2019-04-29T07:06:40.040Z,34.80
2019-04-29T07:11:41.435Z,34.75
2019-04-29T07:16:42.723Z,38.65
2019-04-29T07:21:47.168Z,30.95
2019-04-29T07:26:47.415Z,28.23
2019-04-29T07:31:48.750Z,26.37
2019-04-29T07:36:53.248Z,26.70
2019-04-29T07:41:54.743Z,24.05
2019-04-29T07:47:00.425Z,20.10
2019-04-29T07:52:00.408Z,20.15
2019-04-29T07:57:01.918Z,22.25
2019-04-29T08:02:03.291Z,19.98
2019-04-29T08:07:04.814Z,16.15
2019-04-29T08:12:06.783Z,19.87
2019-04-29T08:17:08.331Z,21.02
2019-04-29T08:22:10.325Z,20.20
2019-04-29T08:27:13.570Z,16.65
2019-04-29T08:32:14.935Z,19.15
2019-04-29T08:37:16.277Z,20.17
2019-04-29T08:42:23.178Z,18.20
2019-04-29T08:47:32.054Z,17.92
2019-04-29T08:52:33.966Z,19.00
2019-04-29T08:57:36.580Z,16.45
2019-04-29T09:02:41.274Z,15.90
2019-04-29T09:07:42.331Z,16.17
2019-04-29T09:12:43.839Z,14.75
2019-04-29T09:17:45.482Z,14.47
2019-04-29T09:22:52.074Z,15.88
2019-04-29T09:28:01.689Z,13.72
2019-04-29T09:33:03.425Z,14.00
2019-04-29T09:38:06.787Z,13.32
2019-04-29T09:43:16.411Z,14.50
2019-04-29T09:48:21.491Z,12.88
2019-04-29T09:53:27.964Z,13.65
2019-04-29T09:58:30.129Z,12.93
2019-04-29T10:03:55.578Z,14.47
2019-04-29T10:08:57.507Z,15.15
2019-04-29T10:13:59.138Z,14.80
2019-04-29T10:19:08.249Z,15.58
2019-04-29T10:24:09.757Z,15.10
2019-04-29T10:29:20.302Z,15.15
2019-04-29T10:34:26.928Z,14.53
2019-04-29T10:39:36.935Z,15.00
2019-04-29T10:44:49.516Z,15.63
2019-04-29T10:49:52.995Z,15.23
2019-04-29T10:54:55.436Z,14.73
2019-04-29T11:00:01.080Z,14.93
2019-04-29T11:05:11.867Z,15.08
2019-04-29T11:10:30.450Z,15.53
2019-04-29T11:15:34.143Z,15.35
2019-04-29T11:20:35.745Z,15.05
2019-04-29T11:25:54.221Z,14.28
2019-04-29T11:30:57.353Z,15.53
2019-04-29T11:36:11.568Z,14.78
2019-04-29T11:41:19.565Z,15.65
2019-04-29T11:46:16.549Z,13.25
2019-04-29T11:51:20.066Z,14.58
2019-04-29T11:56:21.705Z,13.88
2019-04-29T12:01:38.318Z,13.88
2019-04-29T12:06:31.535Z,12.33
2019-04-29T12:11:36.296Z,13.53
2019-04-29T12:16:41.015Z,13.28
2019-04-29T12:21:44.285Z,14.43
2019-04-29T12:26:45.676Z,16.48
2019-04-29T12:31:51.142Z,15.90
2019-04-29T12:36:56.801Z,15.75
2019-04-29T12:42:04.074Z,15.93
2019-04-29T12:47:25.360Z,18.92
2019-04-29T12:52:15.787Z,18.50
2019-04-29T12:57:18.984Z,18.12
2019-04-29T13:02:34.352Z,17.27
2019-04-29T13:07:43.660Z,17.00
2019-04-29T13:12:47.324Z,17.85
2019-04-29T13:18:03.297Z,18.55
2019-04-29T13:23:01.044Z,16.62
2019-04-29T13:28:03.965Z,16.70
2019-04-29T13:33:06.277Z,15.28
2019-04-29T13:38:07.012Z,15.10
2019-04-29T13:43:08.419Z,13.62
2019-04-29T13:48:32.380Z,12.98
2019-04-29T13:53:33.921Z,12.85
2019-04-29T13:58:35.795Z,12.65
2019-04-29T14:03:42.059Z,11.90
2019-04-29T14:08:43.365Z,11.60
2019-04-29T14:13:48.248Z,11.65
2019-04-29T14:18:49.909Z,10.43
2019-04-29T14:23:53.983Z,10.55
2019-04-29T14:28:56.655Z,11.00
2019-04-29T14:34:02.506Z,11.12
2019-04-29T14:39:07.492Z,10.90
2019-04-29T14:44:16.916Z,10.00
2019-04-29T14:49:20.547Z,10.18
2019-04-29T14:54:21.820Z,10.60
2019-04-29T14:59:23.571Z,10.63
2019-04-29T15:04:29.241Z,9.58
2019-04-29T15:09:30.943Z,10.18
2019-04-29T15:14:38.714Z,10.58
2019-04-29T15:19:55.837Z,11.35
2019-04-29T15:24:57.029Z,11.70
2019-04-29T15:30:00.258Z,10.10
2019-04-29T15:35:10.389Z,10.50
2019-04-29T15:40:12.664Z,10.40
2019-04-29T15:45:14.845Z,10.95
2019-04-29T15:50:19.155Z,11.12
2019-04-29T15:55:19.808Z,11.45
2019-04-29T16:00:23.278Z,11.88
2019-04-29T16:05:26.458Z,12.18
2019-04-29T16:10:40.868Z,10.78
2019-04-29T16:15:44.150Z,10.32
2019-04-29T16:20:45.505Z,10.32
2019-04-29T16:25:52.187Z,10.10
2019-04-29T16:30:50.392Z,9.45
2019-04-29T16:35:51.714Z,8.83
2019-04-29T16:40:57.298Z,7.65
2019-04-29T16:46:15.515Z,7.65
2019-04-29T16:51:17.028Z,6.97
2019-04-29T16:56:20.062Z,7.30
2019-04-29T17:01:22.100Z,7.97
2019-04-29T17:06:25.329Z,6.28
2019-04-29T17:11:31.712Z,7.45
2019-04-29T17:16:34.853Z,7.33
2019-04-29T17:21:36.189Z,6.78
2019-04-29T17:26:39.455Z,7.70
2019-04-29T17:32:00.235Z,7.12
2019-04-29T17:37:04.250Z,8.50
2019-04-29T17:42:08.003Z,8.18
2019-04-29T17:47:28.130Z,7.87
2019-04-29T17:52:30.391Z,8.05
2019-04-29T17:57:50.532Z,7.75
2019-04-29T18:03:00.843Z,8.03
2019-04-29T18:08:05.232Z,9.20
2019-04-29T18:13:06.937Z,8.95
2019-04-29T18:18:16.990Z,8.35
2019-04-29T18:23:18.888Z,8.45
2019-04-29T18:28:19.063Z,9.40
2019-04-29T18:33:23.449Z,9.15
2019-04-29T18:38:26.315Z,9.50
2019-04-29T18:43:27.862Z,9.53
2019-04-29T18:48:29.203Z,9.18
2019-04-29T18:53:30.929Z,9.55
2019-04-29T18:58:32.257Z,9.33
2019-04-29T19:03:36.343Z,9.55
2019-04-29T19:08:37.966Z,9.50
2019-04-29T19:13:39.316Z,10.20
2019-04-29T19:18:40.840Z,10.10
2019-04-29T19:23:42.242Z,10.78
2019-04-29T19:28:45.198Z,9.75
2019-04-29T19:33:46.897Z,10.35
2019-04-29T19:38:48.304Z,10.78
2019-04-29T19:43:54.936Z,10.95
2019-04-29T19:48:52.819Z,10.38
2019-04-29T19:53:55.205Z,11.63
2019-04-29T19:58:57.991Z,11.53
2019-04-29T20:04:06.382Z,11.45
2019-04-29T20:09:17.337Z,11.12
2019-04-29T20:14:18.825Z,12.13
2019-04-29T20:19:21.046Z,11.45
2019-04-29T20:24:23.620Z,12.35
2019-04-29T20:29:32.600Z,12.90
2019-04-29T20:34:29.270Z,11.10
2019-04-29T20:39:31.407Z,12.95
2019-04-29T20:44:36.608Z,12.35
2019-04-29T20:49:39.579Z,11.75
2019-04-29T20:54:42.354Z,12.05
2019-04-29T20:59:46.952Z,11.57
2019-04-29T21:04:49.395Z,11.95
2019-04-29T21:09:50.816Z,11.88
2019-04-29T21:14:59.956Z,12.28
2019-04-29T21:20:03.333Z,11.70
2019-04-29T21:25:06.359Z,11.75
2019-04-29T21:30:08.296Z,12.18
2019-04-29T21:35:17.184Z,11.83
2019-04-29T21:40:28.743Z,11.95
2019-04-29T21:45:30.350Z,12.43
2019-04-29T21:50:37.095Z,12.80
2019-04-29T21:55:35.749Z,12.93
2019-04-29T22:00:37.499Z,14.25
2019-04-29T22:05:39.225Z,13.90
2019-04-29T22:10:40.745Z,13.13
2019-04-29T22:15:42.628Z,15.03
2019-04-29T22:20:44.526Z,15.00
2019-04-29T22:25:47.236Z,14.45
2019-04-29T22:36:10.227Z,15.13
2019-04-29T22:41:20.224Z,15.35
2019-04-29T22:46:21.586Z,15.15
2019-04-29T22:51:23.242Z,14.55
2019-04-29T22:56:27.820Z,14.93
2019-04-29T23:01:29.178Z,14.75
2019-04-29T23:06:30.532Z,15.25
2019-04-29T23:11:34.766Z,14.23
2019-04-29T23:16:37.113Z,14.93
2019-04-29T23:21:49.873Z,13.88
2019-04-29T23:26:51.925Z,14.25
2019-04-29T23:31:59.820Z,13.80
2019-04-29T23:37:01.930Z,12.43
2019-04-29T23:42:11.883Z,13.80
2019-04-29T23:47:10.234Z,13.38
2019-04-29T23:52:16.069Z,13.30
2019-04-29T23:57:23.987Z,12.30
